Terminal Aerodrome Forecast
Issued by NWS

Home | Current Version | Previous Version | Text Only | Print | Product List | Glossary On
Versions: 1 2 3 4 5 6 7 8 9 10 11 12 13 14 15 16 17
000
FTUS46 KPDT 091140
TAFYKM
TAF
KYKM 091140Z 0912/1012 26006KT 6SM BR VCSH BKN035 OVC045
     FM092200 31006KT 4SM -SN BR OVC025
     FM101000 25005KT P6SM VCSH SCT035 OVC040=

USA.gov is the U.S. government's official web portal to all federal, state and local government web resources and services.